FHA3FJ LGSM-EDDL
Flight info
| Callsign | FHA3FJ |
|---|---|
| Flight time | 3h 5m |
| Altitude | 36000 |
| Route | ORMOS2B ORMOS DCT PIPEN UL609 MES UG18 FSK UN128 RUGAS DCT RAXAD DCT SOSEK DCT BABIT DCT SASAL DCT DEXIT DCT RUDNO DCT SULUS T852 TINSA T854 DOMUX |
| Aircraft | A320/M-SDE3FGHIRWY/LB1 |
Departure
| Time | 2026-05-05 16:41 |
|---|---|
| Airport | Samos Airport (LGSM) |
Arrival
| Time | 2026-05-05 19:46 |
|---|---|
| Airport | Düsseldorf Airport (EDDL) |
| Time | Latitude | Longitude | Altitude | Speed | Heading |
|---|---|---|---|---|---|
| 2026-05-05 15:52 | 37.69054 | 26.91409 | 24 ft | 0 kts | 4° |
| 2026-05-05 16:27 | 37.69049 | 26.91408 | 24 ft | 4 kts | 3° |
| 2026-05-05 16:27 | 37.69022 | 26.91408 | 23 ft | 4 kts | 351° |
| 2026-05-05 16:28 | 37.69000 | 26.91418 | 23 ft | 4 kts | 290° |
| 2026-05-05 16:28 | 37.69000 | 26.91445 | 22 ft | 2 kts | 255° |
| 2026-05-05 16:28 | 37.69001 | 26.91447 | 22 ft | 1 kts | 255° |
| 2026-05-05 16:34 | 37.68999 | 26.91440 | 25 ft | 3 kts | 255° |
| 2026-05-05 16:34 | 37.68990 | 26.91401 | 22 ft | 7 kts | 246° |
| 2026-05-05 16:35 | 37.68937 | 26.91368 | 20 ft | 10 kts | 192° |
| 2026-05-05 16:35 | 37.68909 | 26.91301 | 20 ft | 10 kts | 271° |
| 2026-05-05 16:35 | 37.68916 | 26.91197 | 22 ft | 14 kts | 274° |
| 2026-05-05 16:35 | 37.68924 | 26.91053 | 23 ft | 18 kts | 278° |
| 2026-05-05 16:36 | 37.68935 | 26.90889 | 20 ft | 20 kts | 275° |
| 2026-05-05 16:36 | 37.68947 | 26.90711 | 21 ft | 20 kts | 274° |
| 2026-05-05 16:36 | 37.68956 | 26.90531 | 21 ft | 21 kts | 275° |
| 2026-05-05 16:36 | 37.68967 | 26.90344 | 20 ft | 21 kts | 274° |
| 2026-05-05 16:37 | 37.68976 | 26.90196 | 21 ft | 14 kts | 274° |
| 2026-05-05 16:37 | 37.68995 | 26.90109 | 21 ft | 6 kts | 290° |
| 2026-05-05 16:37 | 37.68990 | 26.90083 | 21 ft | 1 kts | 217° |
| 2026-05-05 16:37 | 37.68985 | 26.90085 | 21 ft | 0 kts | 172° |
| 2026-05-05 16:38 | 37.68978 | 26.90096 | 23 ft | 3 kts | 122° |
| 2026-05-05 16:38 | 37.68980 | 26.90109 | 21 ft | 1 kts | 82° |
| 2026-05-05 16:38 | 37.68979 | 26.90124 | 21 ft | 1 kts | 95° |
| 2026-05-05 16:40 | 37.68960 | 26.90479 | 20 ft | 83 kts | 94° |
| 2026-05-05 16:40 | 37.68897 | 26.91527 | 22 ft | 154 kts | 94° |
| 2026-05-05 16:41 | 37.68792 | 26.93011 | 466 ft | 175 kts | 93° |
| 2026-05-05 16:41 | 37.68881 | 26.94544 | 1157 ft | 177 kts | 64° |
| 2026-05-05 16:41 | 37.69536 | 26.95908 | 1594 ft | 192 kts | 41° |
| 2026-05-05 16:41 | 37.70551 | 26.97050 | 1947 ft | 206 kts | 34° |
| 2026-05-05 16:42 | 37.71722 | 26.98226 | 2359 ft | 221 kts | 30° |
| 2026-05-05 16:42 | 37.73138 | 26.98892 | 3075 ft | 219 kts | 1° |
| 2026-05-05 16:42 | 37.74626 | 26.98511 | 3825 ft | 223 kts | 333° |
| 2026-05-05 16:42 | 37.75854 | 26.97243 | 4463 ft | 237 kts | 317° |
| 2026-05-05 16:43 | 37.77011 | 26.95659 | 4930 ft | 255 kts | 315° |
| 2026-05-05 16:43 | 37.78153 | 26.93880 | 5652 ft | 260 kts | 305° |
| 2026-05-05 16:43 | 37.78785 | 26.91728 | 6537 ft | 266 kts | 285° |
| 2026-05-05 16:43 | 37.79141 | 26.89406 | 7316 ft | 270 kts | 285° |
| 2026-05-05 16:44 | 37.79507 | 26.87074 | 8096 ft | 272 kts | 285° |
| 2026-05-05 16:44 | 37.79760 | 26.85492 | 8635 ft | 273 kts | 285° |
| 2026-05-05 16:44 | 37.80138 | 26.83160 | 9419 ft | 276 kts | 285° |
| 2026-05-05 16:44 | 37.80529 | 26.80772 | 10185 ft | 279 kts | 285° |
| 2026-05-05 16:45 | 37.80940 | 26.78283 | 10483 ft | 301 kts | 285° |
| 2026-05-05 16:45 | 37.81388 | 26.75601 | 10699 ft | 321 kts | 285° |
| 2026-05-05 16:45 | 37.81855 | 26.72800 | 11239 ft | 329 kts | 285° |
| 2026-05-05 16:45 | 37.82326 | 26.69950 | 11873 ft | 333 kts | 285° |
| 2026-05-05 16:46 | 37.82799 | 26.67064 | 12519 ft | 337 kts | 285° |
| 2026-05-05 16:46 | 37.83273 | 26.64140 | 13174 ft | 340 kts | 285° |
| 2026-05-05 16:46 | 37.83753 | 26.61186 | 13807 ft | 344 kts | 285° |
| 2026-05-05 16:46 | 37.84382 | 26.58264 | 14359 ft | 344 kts | 295° |
| 2026-05-05 16:47 | 37.85441 | 26.55570 | 14948 ft | 342 kts | 304° |
| 2026-05-05 16:47 | 37.86674 | 26.52984 | 15541 ft | 344 kts | 305° |
| 2026-05-05 16:47 | 37.88138 | 26.50608 | 16116 ft | 341 kts | 320° |
| 2026-05-05 16:47 | 37.89909 | 26.48609 | 16705 ft | 342 kts | 321° |
| 2026-05-05 16:48 | 37.91703 | 26.46607 | 17300 ft | 344 kts | 321° |
| 2026-05-05 16:48 | 37.93503 | 26.44603 | 17877 ft | 346 kts | 321° |
| 2026-05-05 16:48 | 37.95319 | 26.42580 | 18422 ft | 349 kts | 321° |
| 2026-05-05 16:48 | 37.97145 | 26.40546 | 18896 ft | 351 kts | 321° |
| 2026-05-05 16:49 | 37.98986 | 26.38489 | 19368 ft | 354 kts | 321° |
| 2026-05-05 16:49 | 38.00818 | 26.36438 | 19821 ft | 356 kts | 321° |
| 2026-05-05 16:49 | 38.02685 | 26.34343 | 20272 ft | 359 kts | 321° |
| 2026-05-05 16:49 | 38.04573 | 26.32225 | 20716 ft | 362 kts | 321° |
| 2026-05-05 16:50 | 38.06465 | 26.30100 | 21153 ft | 365 kts | 321° |
| 2026-05-05 16:50 | 38.08373 | 26.27954 | 21588 ft | 367 kts | 321° |
| 2026-05-05 16:50 | 38.10291 | 26.25792 | 21999 ft | 371 kts | 321° |
| 2026-05-05 16:50 | 38.12222 | 26.23616 | 22189 ft | 380 kts | 321° |
| 2026-05-05 16:51 | 38.14218 | 26.21364 | 22384 ft | 388 kts | 321° |
| 2026-05-05 16:51 | 38.16252 | 26.19049 | 22568 ft | 396 kts | 320° |
| 2026-05-05 16:51 | 38.18313 | 26.16681 | 22761 ft | 403 kts | 320° |
| 2026-05-05 16:51 | 38.20403 | 26.14269 | 22963 ft | 409 kts | 320° |
| 2026-05-05 16:52 | 38.22525 | 26.11815 | 23145 ft | 415 kts | 320° |
| 2026-05-05 16:52 | 38.24680 | 26.09325 | 23338 ft | 421 kts | 320° |
| 2026-05-05 16:52 | 38.26866 | 26.06799 | 23527 ft | 426 kts | 320° |
| 2026-05-05 16:52 | 38.29073 | 26.04250 | 23706 ft | 431 kts | 320° |
| 2026-05-05 16:53 | 38.31310 | 26.01668 | 23866 ft | 435 kts | 320° |
| 2026-05-05 16:53 | 38.33566 | 25.99067 | 24015 ft | 439 kts | 320° |
| 2026-05-05 16:53 | 38.35835 | 25.96450 | 24053 ft | 440 kts | 320° |
| 2026-05-05 16:53 | 38.38104 | 25.93827 | 24056 ft | 440 kts | 320° |
| 2026-05-05 16:54 | 38.40377 | 25.91192 | 24052 ft | 441 kts | 320° |
| 2026-05-05 16:54 | 38.42643 | 25.88558 | 24053 ft | 441 kts | 320° |
| 2026-05-05 16:54 | 38.44908 | 25.85924 | 24055 ft | 441 kts | 320° |
| 2026-05-05 16:54 | 38.47171 | 25.83291 | 24402 ft | 437 kts | 320° |
| 2026-05-05 16:55 | 38.49410 | 25.80683 | 24771 ft | 437 kts | 320° |
| 2026-05-05 16:55 | 38.51668 | 25.78055 | 24939 ft | 441 kts | 320° |
| 2026-05-05 16:55 | 38.53911 | 25.75442 | 25204 ft | 441 kts | 320° |
| 2026-05-05 16:55 | 38.56175 | 25.72797 | 25511 ft | 442 kts | 320° |
| 2026-05-05 16:56 | 38.58445 | 25.70138 | 25812 ft | 442 kts | 320° |
| 2026-05-05 16:56 | 38.60710 | 25.67478 | 26139 ft | 442 kts | 320° |
| 2026-05-05 16:56 | 38.62976 | 25.64817 | 26461 ft | 442 kts | 320° |
| 2026-05-05 16:56 | 38.65244 | 25.62154 | 26799 ft | 442 kts | 320° |
| 2026-05-05 16:57 | 38.67518 | 25.59487 | 27108 ft | 443 kts | 320° |
| 2026-05-05 16:57 | 38.69788 | 25.56822 | 27427 ft | 443 kts | 321° |
| 2026-05-05 16:57 | 38.72063 | 25.54149 | 27751 ft | 443 kts | 320° |
| 2026-05-05 16:57 | 38.74333 | 25.51476 | 28082 ft | 443 kts | 321° |
| 2026-05-05 16:58 | 38.76580 | 25.48831 | 28388 ft | 443 kts | 321° |
| 2026-05-05 16:58 | 38.78857 | 25.46148 | 28705 ft | 444 kts | 321° |
| 2026-05-05 16:58 | 38.81132 | 25.43467 | 29036 ft | 444 kts | 321° |
| 2026-05-05 16:58 | 38.83401 | 25.40786 | 29363 ft | 444 kts | 321° |
| 2026-05-05 16:59 | 38.85675 | 25.38090 | 29669 ft | 444 kts | 321° |
| 2026-05-05 16:59 | 38.87941 | 25.35397 | 29982 ft | 444 kts | 321° |
| 2026-05-05 16:59 | 38.90212 | 25.32696 | 30296 ft | 444 kts | 320° |
| 2026-05-05 16:59 | 38.92479 | 25.30005 | 30550 ft | 445 kts | 320° |
| 2026-05-05 17:00 | 38.94754 | 25.27310 | 30862 ft | 444 kts | 320° |
| 2026-05-05 17:00 | 38.97018 | 25.24628 | 31190 ft | 442 kts | 320° |
| 2026-05-05 17:00 | 38.99274 | 25.21947 | 31526 ft | 441 kts | 320° |
| 2026-05-05 17:00 | 39.01517 | 25.19276 | 31863 ft | 439 kts | 320° |
| 2026-05-05 17:01 | 39.03722 | 25.16643 | 32172 ft | 438 kts | 319° |
| 2026-05-05 17:01 | 39.05962 | 25.13965 | 32504 ft | 436 kts | 319° |
| 2026-05-05 17:01 | 39.08185 | 25.11309 | 32842 ft | 435 kts | 319° |
| 2026-05-05 17:01 | 39.10401 | 25.08668 | 33175 ft | 433 kts | 319° |
| 2026-05-05 17:02 | 39.12613 | 25.06029 | 33482 ft | 432 kts | 319° |
| 2026-05-05 17:02 | 39.14818 | 25.03393 | 33804 ft | 431 kts | 319° |
| 2026-05-05 17:02 | 39.17005 | 25.00768 | 34107 ft | 430 kts | 319° |
| 2026-05-05 17:02 | 39.19157 | 24.98174 | 34369 ft | 429 kts | 318° |
| 2026-05-05 17:03 | 39.21364 | 24.95577 | 34592 ft | 427 kts | 322° |
| 2026-05-05 17:03 | 39.23700 | 24.93215 | 34812 ft | 427 kts | 323° |
| 2026-05-05 17:03 | 39.26049 | 24.90862 | 35040 ft | 426 kts | 323° |
| 2026-05-05 17:03 | 39.28390 | 24.88515 | 35262 ft | 425 kts | 323° |
| 2026-05-05 17:04 | 39.30720 | 24.86171 | 35468 ft | 425 kts | 323° |
| 2026-05-05 17:04 | 39.33054 | 24.83822 | 35680 ft | 424 kts | 323° |
| 2026-05-05 17:04 | 39.35373 | 24.81483 | 35892 ft | 423 kts | 323° |
| 2026-05-05 17:04 | 39.37695 | 24.79134 | 36024 ft | 423 kts | 322° |
| 2026-05-05 17:05 | 39.42313 | 24.74450 | 36049 ft | 421 kts | 323° |
| 2026-05-05 17:05 | 39.46903 | 24.69809 | 36048 ft | 421 kts | 323° |
| 2026-05-05 17:06 | 39.51516 | 24.65135 | 36047 ft | 421 kts | 323° |
| 2026-05-05 17:06 | 39.56122 | 24.60450 | 36041 ft | 421 kts | 322° |
| 2026-05-05 17:07 | 39.60732 | 24.55750 | 36042 ft | 421 kts | 322° |
| 2026-05-05 17:07 | 39.65334 | 24.51057 | 36033 ft | 421 kts | 322° |
| 2026-05-05 17:08 | 39.69938 | 24.46341 | 36033 ft | 421 kts | 322° |
| 2026-05-05 17:08 | 39.74507 | 24.41648 | 36028 ft | 421 kts | 322° |
| 2026-05-05 17:09 | 39.79112 | 24.36923 | 36026 ft | 421 kts | 322° |
| 2026-05-05 17:09 | 39.83722 | 24.32197 | 36021 ft | 421 kts | 322° |
| 2026-05-05 17:10 | 39.88297 | 24.27490 | 36022 ft | 421 kts | 322° |
| 2026-05-05 17:10 | 39.92892 | 24.22747 | 36017 ft | 421 kts | 322° |
| 2026-05-05 17:11 | 39.97489 | 24.17995 | 36021 ft | 421 kts | 322° |
| 2026-05-05 17:11 | 40.02087 | 24.13237 | 36018 ft | 422 kts | 322° |
| 2026-05-05 17:12 | 40.06680 | 24.08479 | 36022 ft | 422 kts | 322° |
| 2026-05-05 17:12 | 40.11269 | 24.03711 | 36022 ft | 422 kts | 322° |
| 2026-05-05 17:13 | 40.15869 | 23.98924 | 36022 ft | 422 kts | 322° |
| 2026-05-05 17:13 | 40.20463 | 23.94135 | 36021 ft | 422 kts | 322° |
| 2026-05-05 17:14 | 40.25054 | 23.89337 | 36025 ft | 422 kts | 322° |
| 2026-05-05 17:14 | 40.29606 | 23.84571 | 36025 ft | 422 kts | 322° |
| 2026-05-05 17:15 | 40.34191 | 23.79761 | 36023 ft | 422 kts | 322° |
| 2026-05-05 17:15 | 40.38778 | 23.74938 | 36027 ft | 422 kts | 322° |
| 2026-05-05 17:16 | 40.43365 | 23.70111 | 36029 ft | 422 kts | 322° |
| 2026-05-05 17:16 | 40.47947 | 23.65281 | 36021 ft | 423 kts | 322° |
| 2026-05-05 17:17 | 40.52505 | 23.60464 | 36028 ft | 423 kts | 322° |
| 2026-05-05 17:17 | 40.57090 | 23.55616 | 36022 ft | 423 kts | 322° |
| 2026-05-05 17:18 | 40.61675 | 23.50768 | 36020 ft | 423 kts | 322° |
| 2026-05-05 17:18 | 40.66250 | 23.45917 | 36022 ft | 422 kts | 322° |
| 2026-05-05 17:19 | 40.70821 | 23.41053 | 36019 ft | 422 kts | 322° |
| 2026-05-05 17:19 | 40.75387 | 23.36180 | 36019 ft | 422 kts | 322° |
| 2026-05-05 17:20 | 40.79949 | 23.31309 | 36012 ft | 421 kts | 321° |
| 2026-05-05 17:20 | 40.84507 | 23.26441 | 36010 ft | 421 kts | 322° |
| 2026-05-05 17:21 | 40.89035 | 23.21595 | 36012 ft | 421 kts | 321° |
| 2026-05-05 17:22 | 40.95850 | 23.14262 | 36010 ft | 420 kts | 321° |
| 2026-05-05 17:22 | 41.00382 | 23.09380 | 36004 ft | 420 kts | 321° |
| 2026-05-05 17:23 | 41.04914 | 23.04499 | 36003 ft | 419 kts | 321° |
| 2026-05-05 17:23 | 41.09438 | 22.99622 | 36003 ft | 419 kts | 323° |
| 2026-05-05 17:24 | 41.14277 | 22.95341 | 35998 ft | 418 kts | 327° |
| 2026-05-05 17:24 | 41.19145 | 22.91131 | 35995 ft | 418 kts | 327° |
| 2026-05-05 17:25 | 41.23981 | 22.86940 | 35994 ft | 417 kts | 327° |
| 2026-05-05 17:25 | 41.28832 | 22.82717 | 36000 ft | 417 kts | 327° |
| 2026-05-05 17:26 | 41.33775 | 22.78691 | 36000 ft | 415 kts | 335° |
| 2026-05-05 17:26 | 41.39111 | 22.75738 | 36004 ft | 415 kts | 337° |
| 2026-05-05 17:27 | 41.44452 | 22.72786 | 36005 ft | 415 kts | 337° |
| 2026-05-05 17:27 | 41.49780 | 22.69821 | 36012 ft | 415 kts | 337° |
| 2026-05-05 17:28 | 41.54207 | 22.67360 | 36012 ft | 414 kts | 337° |
| 2026-05-05 17:28 | 41.59529 | 22.64403 | 36013 ft | 414 kts | 337° |
| 2026-05-05 17:29 | 41.64856 | 22.61442 | 36009 ft | 414 kts | 337° |
| 2026-05-05 17:29 | 41.70177 | 22.58473 | 36008 ft | 414 kts | 337° |
| 2026-05-05 17:30 | 41.75493 | 22.55512 | 36012 ft | 414 kts | 337° |
| 2026-05-05 17:30 | 41.80806 | 22.52534 | 36018 ft | 414 kts | 337° |
| 2026-05-05 17:31 | 41.86107 | 22.49550 | 36021 ft | 413 kts | 337° |
| 2026-05-05 17:31 | 41.91422 | 22.46571 | 36022 ft | 413 kts | 337° |
| 2026-05-05 17:32 | 41.96716 | 22.43590 | 36021 ft | 412 kts | 337° |
| 2026-05-05 17:32 | 42.02008 | 22.40611 | 36025 ft | 412 kts | 337° |
| 2026-05-05 17:33 | 42.07280 | 22.37637 | 36026 ft | 412 kts | 337° |
| 2026-05-05 17:33 | 42.12563 | 22.34646 | 36032 ft | 412 kts | 337° |
| 2026-05-05 17:34 | 42.17846 | 22.31650 | 36029 ft | 411 kts | 337° |
| 2026-05-05 17:34 | 42.23119 | 22.28657 | 36031 ft | 411 kts | 337° |
| 2026-05-05 17:35 | 42.28391 | 22.25659 | 36031 ft | 411 kts | 337° |
| 2026-05-05 17:35 | 42.33436 | 22.22067 | 36033 ft | 410 kts | 328° |
| 2026-05-05 17:36 | 42.38232 | 22.17972 | 36029 ft | 410 kts | 328° |
| 2026-05-05 17:36 | 42.43057 | 22.13862 | 36026 ft | 410 kts | 328° |
| 2026-05-05 17:37 | 42.47884 | 22.09739 | 36015 ft | 409 kts | 328° |
| 2026-05-05 17:37 | 42.52702 | 22.05614 | 36013 ft | 409 kts | 328° |
| 2026-05-05 17:38 | 42.57517 | 22.01478 | 36011 ft | 409 kts | 328° |
| 2026-05-05 17:38 | 42.62324 | 21.97349 | 35999 ft | 409 kts | 328° |
| 2026-05-05 17:39 | 42.67136 | 21.93216 | 35997 ft | 409 kts | 328° |
| 2026-05-05 17:39 | 42.71906 | 21.89105 | 35995 ft | 409 kts | 328° |
| 2026-05-05 17:40 | 42.76709 | 21.84960 | 35989 ft | 408 kts | 328° |
| 2026-05-05 17:40 | 42.81511 | 21.80813 | 35993 ft | 408 kts | 328° |
| 2026-05-05 17:41 | 42.86290 | 21.76654 | 35984 ft | 407 kts | 326° |
| 2026-05-05 17:41 | 42.91058 | 21.72505 | 35998 ft | 405 kts | 326° |
| 2026-05-05 17:42 | 42.95809 | 21.68374 | 35996 ft | 404 kts | 326° |
| 2026-05-05 17:42 | 43.00549 | 21.64253 | 35997 ft | 404 kts | 326° |
| 2026-05-05 17:43 | 43.05288 | 21.60118 | 35987 ft | 404 kts | 326° |
| 2026-05-05 17:43 | 43.10019 | 21.55964 | 35980 ft | 403 kts | 326° |
| 2026-05-05 17:44 | 43.14716 | 21.51839 | 35979 ft | 404 kts | 326° |
| 2026-05-05 17:44 | 43.19448 | 21.47676 | 35972 ft | 404 kts | 326° |
| 2026-05-05 17:45 | 43.24178 | 21.43515 | 35969 ft | 404 kts | 326° |
| 2026-05-05 17:45 | 43.28914 | 21.39343 | 35965 ft | 404 kts | 326° |
| 2026-05-05 17:46 | 43.33648 | 21.35157 | 35967 ft | 405 kts | 326° |
| 2026-05-05 17:46 | 43.38386 | 21.30964 | 35960 ft | 405 kts | 326° |
| 2026-05-05 17:47 | 43.43134 | 21.26767 | 35960 ft | 406 kts | 326° |
| 2026-05-05 17:47 | 43.47881 | 21.22549 | 35953 ft | 406 kts | 325° |
| 2026-05-05 17:48 | 43.52616 | 21.18322 | 35952 ft | 406 kts | 325° |
| 2026-05-05 17:48 | 43.57364 | 21.14087 | 35949 ft | 406 kts | 325° |
| 2026-05-05 17:49 | 43.62063 | 21.09893 | 35945 ft | 406 kts | 325° |
| 2026-05-05 17:49 | 43.66821 | 21.05636 | 35947 ft | 406 kts | 325° |
| 2026-05-05 17:50 | 43.71571 | 21.01380 | 35941 ft | 407 kts | 325° |
| 2026-05-05 17:50 | 43.76322 | 20.97103 | 35940 ft | 408 kts | 325° |
| 2026-05-05 17:51 | 43.81081 | 20.92809 | 35938 ft | 408 kts | 325° |
| 2026-05-05 17:51 | 43.85848 | 20.88513 | 35937 ft | 409 kts | 325° |
| 2026-05-05 17:52 | 43.90593 | 20.84230 | 35940 ft | 409 kts | 325° |
| 2026-05-05 17:52 | 43.95366 | 20.79923 | 35944 ft | 409 kts | 324° |
| 2026-05-05 17:53 | 44.00137 | 20.75584 | 35941 ft | 409 kts | 324° |
| 2026-05-05 17:53 | 44.04899 | 20.71242 | 35942 ft | 410 kts | 324° |
| 2026-05-05 17:54 | 44.09672 | 20.66890 | 35941 ft | 410 kts | 324° |
| 2026-05-05 17:54 | 44.14453 | 20.62527 | 35940 ft | 411 kts | 324° |
| 2026-05-05 17:55 | 44.19237 | 20.58159 | 35943 ft | 411 kts | 324° |
| 2026-05-05 17:55 | 44.24017 | 20.53785 | 35941 ft | 411 kts | 324° |
| 2026-05-05 17:56 | 44.28799 | 20.49375 | 35942 ft | 412 kts | 324° |
| 2026-05-05 17:56 | 44.33557 | 20.44994 | 35944 ft | 413 kts | 324° |
| 2026-05-05 17:57 | 44.38358 | 20.40580 | 35946 ft | 413 kts | 324° |
| 2026-05-05 17:57 | 44.43163 | 20.36150 | 35946 ft | 413 kts | 324° |
| 2026-05-05 17:58 | 44.47961 | 20.31700 | 35948 ft | 413 kts | 324° |
| 2026-05-05 17:58 | 44.52763 | 20.27244 | 35944 ft | 414 kts | 324° |
| 2026-05-05 17:59 | 44.57564 | 20.22788 | 35943 ft | 414 kts | 324° |
| 2026-05-05 17:59 | 44.62343 | 20.18333 | 35938 ft | 414 kts | 324° |
| 2026-05-05 18:00 | 44.67140 | 20.13848 | 35938 ft | 415 kts | 324° |
| 2026-05-05 18:00 | 44.71951 | 20.09352 | 35940 ft | 415 kts | 324° |
| 2026-05-05 18:01 | 44.76763 | 20.04845 | 35938 ft | 416 kts | 324° |
| 2026-05-05 18:01 | 44.81582 | 20.00319 | 35938 ft | 416 kts | 324° |
| 2026-05-05 18:02 | 44.86403 | 19.95785 | 35939 ft | 417 kts | 324° |
| 2026-05-05 18:02 | 44.91230 | 19.91225 | 35939 ft | 418 kts | 324° |
| 2026-05-05 18:03 | 44.96061 | 19.86661 | 35940 ft | 418 kts | 324° |
| 2026-05-05 18:03 | 45.00901 | 19.82085 | 35935 ft | 418 kts | 324° |
| 2026-05-05 18:04 | 45.05742 | 19.77502 | 35941 ft | 419 kts | 324° |
| 2026-05-05 18:04 | 45.10552 | 19.72926 | 35937 ft | 419 kts | 324° |
| 2026-05-05 18:05 | 45.15388 | 19.68302 | 35934 ft | 419 kts | 324° |
| 2026-05-05 18:05 | 45.20234 | 19.63673 | 35932 ft | 420 kts | 324° |
| 2026-05-05 18:06 | 45.25082 | 19.59045 | 35941 ft | 420 kts | 324° |
| 2026-05-05 18:06 | 45.29933 | 19.54413 | 35936 ft | 420 kts | 324° |
| 2026-05-05 18:07 | 45.34784 | 19.49756 | 35932 ft | 420 kts | 324° |
| 2026-05-05 18:07 | 45.39632 | 19.45095 | 35930 ft | 420 kts | 323° |
| 2026-05-05 18:08 | 45.44474 | 19.40415 | 35932 ft | 421 kts | 323° |
| 2026-05-05 18:08 | 45.49321 | 19.35724 | 35935 ft | 421 kts | 323° |
| 2026-05-05 18:09 | 45.54146 | 19.31054 | 35929 ft | 422 kts | 323° |
| 2026-05-05 18:09 | 45.59029 | 19.26313 | 35927 ft | 422 kts | 323° |
| 2026-05-05 18:10 | 45.63857 | 19.21620 | 35932 ft | 423 kts | 323° |
| 2026-05-05 18:10 | 45.68722 | 19.16878 | 35930 ft | 423 kts | 323° |
| 2026-05-05 18:11 | 45.72776 | 19.12919 | 35932 ft | 424 kts | 323° |
| 2026-05-05 18:11 | 45.77642 | 19.08146 | 35934 ft | 425 kts | 323° |
| 2026-05-05 18:12 | 45.82531 | 19.03358 | 35935 ft | 425 kts | 323° |
| 2026-05-05 18:12 | 45.87414 | 18.98558 | 35935 ft | 425 kts | 323° |
| 2026-05-05 18:13 | 45.92259 | 18.93674 | 35941 ft | 424 kts | 318° |
| 2026-05-05 18:13 | 45.96260 | 18.87523 | 35937 ft | 421 kts | 307° |
| 2026-05-05 18:14 | 45.99988 | 18.81029 | 35939 ft | 422 kts | 307° |
| 2026-05-05 18:14 | 46.03726 | 18.74507 | 35938 ft | 422 kts | 307° |
| 2026-05-05 18:15 | 46.07466 | 18.67978 | 35945 ft | 423 kts | 307° |
| 2026-05-05 18:15 | 46.11195 | 18.61428 | 35950 ft | 423 kts | 307° |
| 2026-05-05 18:16 | 46.14900 | 18.54912 | 35957 ft | 423 kts | 307° |
| 2026-05-05 18:16 | 46.18645 | 18.48330 | 35958 ft | 423 kts | 307° |
| 2026-05-05 18:17 | 46.22378 | 18.41745 | 35958 ft | 423 kts | 307° |
| 2026-05-05 18:17 | 46.26099 | 18.35145 | 35956 ft | 423 kts | 307° |
| 2026-05-05 18:18 | 46.29820 | 18.28545 | 35952 ft | 423 kts | 307° |
| 2026-05-05 18:18 | 46.33518 | 18.21969 | 35948 ft | 423 kts | 307° |
| 2026-05-05 18:19 | 46.37228 | 18.15357 | 35942 ft | 423 kts | 307° |
| 2026-05-05 18:19 | 46.40929 | 18.08730 | 35943 ft | 423 kts | 307° |
| 2026-05-05 18:20 | 46.44639 | 18.02081 | 35936 ft | 423 kts | 307° |
| 2026-05-05 18:20 | 46.48342 | 17.95443 | 35940 ft | 423 kts | 307° |
| 2026-05-05 18:21 | 46.52044 | 17.88785 | 35936 ft | 423 kts | 307° |
| 2026-05-05 18:21 | 46.55711 | 17.82158 | 35933 ft | 423 kts | 307° |
| 2026-05-05 18:22 | 46.59395 | 17.75483 | 35928 ft | 423 kts | 307° |
| 2026-05-05 18:22 | 46.63088 | 17.68799 | 35921 ft | 423 kts | 307° |
| 2026-05-05 18:23 | 46.66778 | 17.62111 | 35920 ft | 423 kts | 307° |
| 2026-05-05 18:23 | 46.70456 | 17.55414 | 35920 ft | 423 kts | 307° |
| 2026-05-05 18:24 | 46.74106 | 17.48725 | 35918 ft | 423 kts | 307° |
| 2026-05-05 18:24 | 46.77778 | 17.42011 | 35918 ft | 424 kts | 307° |
| 2026-05-05 18:25 | 46.81456 | 17.35272 | 35918 ft | 424 kts | 306° |
| 2026-05-05 18:25 | 46.85115 | 17.28530 | 35915 ft | 424 kts | 306° |
| 2026-05-05 18:26 | 46.88778 | 17.21776 | 35915 ft | 424 kts | 306° |
| 2026-05-05 18:26 | 46.92432 | 17.15006 | 35915 ft | 424 kts | 306° |
| 2026-05-05 18:27 | 46.96086 | 17.08225 | 35913 ft | 424 kts | 306° |
| 2026-05-05 18:27 | 46.99734 | 17.01445 | 35909 ft | 424 kts | 306° |
| 2026-05-05 18:28 | 47.05179 | 16.91317 | 35897 ft | 423 kts | 306° |
| 2026-05-05 18:28 | 47.08817 | 16.84522 | 35895 ft | 423 kts | 306° |
| 2026-05-05 18:29 | 47.12453 | 16.77717 | 35892 ft | 423 kts | 306° |
| 2026-05-05 18:29 | 47.16078 | 16.70912 | 35892 ft | 423 kts | 305° |
| 2026-05-05 18:30 | 47.19689 | 16.64082 | 35884 ft | 423 kts | 306° |
| 2026-05-05 18:30 | 47.23286 | 16.57293 | 35882 ft | 423 kts | 306° |
| 2026-05-05 18:31 | 47.26896 | 16.50464 | 35878 ft | 422 kts | 305° |
| 2026-05-05 18:31 | 47.30521 | 16.43660 | 35868 ft | 422 kts | 307° |
| 2026-05-05 18:32 | 47.34279 | 16.36994 | 35869 ft | 422 kts | 308° |
| 2026-05-05 18:32 | 47.38056 | 16.30353 | 35866 ft | 422 kts | 307° |
| 2026-05-05 18:33 | 47.41810 | 16.23677 | 35853 ft | 422 kts | 307° |
| 2026-05-05 18:33 | 47.45516 | 16.17015 | 35860 ft | 422 kts | 307° |
| 2026-05-05 18:34 | 47.49230 | 16.10310 | 35849 ft | 421 kts | 307° |
| 2026-05-05 18:34 | 47.52928 | 16.03616 | 35853 ft | 420 kts | 307° |
| 2026-05-05 18:35 | 47.56636 | 15.96905 | 35827 ft | 420 kts | 306° |
| 2026-05-05 18:35 | 47.60330 | 15.90195 | 35829 ft | 420 kts | 307° |
| 2026-05-05 18:36 | 47.64020 | 15.83486 | 35822 ft | 420 kts | 306° |
| 2026-05-05 18:36 | 47.67715 | 15.76763 | 35816 ft | 420 kts | 306° |
| 2026-05-05 18:37 | 47.71397 | 15.70025 | 35814 ft | 420 kts | 306° |
| 2026-05-05 18:37 | 47.75077 | 15.63285 | 35810 ft | 420 kts | 306° |
| 2026-05-05 18:38 | 47.78732 | 15.56579 | 35809 ft | 420 kts | 306° |
| 2026-05-05 18:38 | 47.82393 | 15.49819 | 35799 ft | 420 kts | 306° |
| 2026-05-05 18:39 | 47.86061 | 15.43056 | 35781 ft | 420 kts | 306° |
| 2026-05-05 18:39 | 47.89738 | 15.36271 | 35769 ft | 421 kts | 306° |
| 2026-05-05 18:40 | 47.93410 | 15.29445 | 35764 ft | 422 kts | 306° |
| 2026-05-05 18:40 | 47.97082 | 15.22603 | 35754 ft | 422 kts | 306° |
| 2026-05-05 18:41 | 48.00757 | 15.15756 | 35749 ft | 422 kts | 306° |
| 2026-05-05 18:41 | 48.04430 | 15.08906 | 35745 ft | 423 kts | 306° |
| 2026-05-05 18:42 | 48.08080 | 15.02070 | 35740 ft | 423 kts | 306° |
| 2026-05-05 18:42 | 48.11749 | 14.95182 | 35739 ft | 423 kts | 306° |
| 2026-05-05 18:43 | 48.15408 | 14.88273 | 35737 ft | 423 kts | 305° |
| 2026-05-05 18:43 | 48.19057 | 14.81372 | 35735 ft | 423 kts | 305° |
| 2026-05-05 18:44 | 48.22710 | 14.74454 | 35733 ft | 423 kts | 305° |
| 2026-05-05 18:44 | 48.26358 | 14.67523 | 35741 ft | 423 kts | 305° |
| 2026-05-05 18:45 | 48.29977 | 14.60634 | 35748 ft | 423 kts | 305° |
| 2026-05-05 18:45 | 48.33619 | 14.53687 | 35753 ft | 423 kts | 305° |
| 2026-05-05 18:46 | 48.37266 | 14.46727 | 35755 ft | 423 kts | 305° |
| 2026-05-05 18:46 | 48.40900 | 14.39750 | 35756 ft | 424 kts | 305° |
| 2026-05-05 18:47 | 48.44537 | 14.32756 | 35757 ft | 424 kts | 305° |
| 2026-05-05 18:47 | 48.48179 | 14.25742 | 35756 ft | 424 kts | 305° |
| 2026-05-05 18:48 | 48.51800 | 14.18732 | 35754 ft | 424 kts | 304° |
| 2026-05-05 18:48 | 48.55429 | 14.11687 | 35752 ft | 425 kts | 304° |
| 2026-05-05 18:49 | 48.59051 | 14.04646 | 35749 ft | 425 kts | 304° |
| 2026-05-05 18:49 | 48.62684 | 13.97593 | 35752 ft | 425 kts | 304° |
| 2026-05-05 18:50 | 48.66313 | 13.90523 | 35758 ft | 425 kts | 304° |
| 2026-05-05 18:50 | 48.69906 | 13.83479 | 35755 ft | 425 kts | 304° |
| 2026-05-05 18:51 | 48.73517 | 13.76382 | 35760 ft | 425 kts | 304° |
| 2026-05-05 18:51 | 48.77128 | 13.69268 | 35759 ft | 425 kts | 304° |
| 2026-05-05 18:52 | 48.80711 | 13.62118 | 35764 ft | 426 kts | 304° |
| 2026-05-05 18:52 | 48.84277 | 13.54947 | 35759 ft | 426 kts | 303° |
| 2026-05-05 18:53 | 48.87852 | 13.47758 | 35765 ft | 427 kts | 303° |
| 2026-05-05 18:53 | 48.91437 | 13.40553 | 35765 ft | 427 kts | 303° |
| 2026-05-05 18:54 | 48.95013 | 13.33326 | 35772 ft | 428 kts | 303° |
| 2026-05-05 18:54 | 48.98593 | 13.26081 | 35767 ft | 428 kts | 303° |
| 2026-05-05 18:55 | 49.02177 | 13.18813 | 35767 ft | 429 kts | 303° |
| 2026-05-05 18:55 | 49.05153 | 13.12759 | 35767 ft | 430 kts | 303° |
| 2026-05-05 18:56 | 49.08729 | 13.05441 | 35769 ft | 430 kts | 303° |
| 2026-05-05 18:56 | 49.12309 | 12.98111 | 35774 ft | 431 kts | 303° |
| 2026-05-05 18:57 | 49.15890 | 12.90779 | 35774 ft | 431 kts | 303° |
| 2026-05-05 18:57 | 49.19471 | 12.83407 | 35777 ft | 432 kts | 303° |
| 2026-05-05 18:58 | 49.23046 | 12.76022 | 35778 ft | 432 kts | 303° |
| 2026-05-05 18:58 | 49.26628 | 12.68618 | 35779 ft | 433 kts | 303° |
| 2026-05-05 18:59 | 49.30211 | 12.61188 | 35777 ft | 434 kts | 302° |
| 2026-05-05 18:59 | 49.33765 | 12.53767 | 35776 ft | 434 kts | 302° |
| 2026-05-05 19:00 | 49.37160 | 12.46041 | 35782 ft | 434 kts | 298° |
| 2026-05-05 19:00 | 49.40352 | 12.38245 | 35781 ft | 434 kts | 298° |
| 2026-05-05 19:01 | 49.43575 | 12.30370 | 35779 ft | 435 kts | 298° |
| 2026-05-05 19:01 | 49.46840 | 12.22514 | 35781 ft | 436 kts | 299° |
| 2026-05-05 19:02 | 49.50126 | 12.14652 | 35783 ft | 437 kts | 299° |
| 2026-05-05 19:02 | 49.53406 | 12.06775 | 35781 ft | 437 kts | 298° |
| 2026-05-05 19:03 | 49.56675 | 11.98901 | 35782 ft | 438 kts | 298° |
| 2026-05-05 19:03 | 49.59960 | 11.90944 | 35779 ft | 439 kts | 298° |
| 2026-05-05 19:04 | 49.63230 | 11.82986 | 35780 ft | 439 kts | 298° |
| 2026-05-05 19:04 | 49.66502 | 11.74997 | 35775 ft | 440 kts | 298° |
| 2026-05-05 19:05 | 49.69753 | 11.67048 | 35782 ft | 441 kts | 298° |
| 2026-05-05 19:05 | 49.73029 | 11.59033 | 35794 ft | 441 kts | 298° |
| 2026-05-05 19:06 | 49.76300 | 11.50992 | 35799 ft | 442 kts | 298° |
| 2026-05-05 19:06 | 49.79569 | 11.42938 | 35803 ft | 442 kts | 298° |
| 2026-05-05 19:07 | 49.82839 | 11.34844 | 35806 ft | 443 kts | 298° |
| 2026-05-05 19:07 | 49.86101 | 11.26743 | 35811 ft | 443 kts | 298° |
| 2026-05-05 19:08 | 49.89360 | 11.18620 | 35808 ft | 444 kts | 298° |
| 2026-05-05 19:08 | 49.92617 | 11.10480 | 35808 ft | 444 kts | 298° |
| 2026-05-05 19:09 | 49.95844 | 11.02359 | 35813 ft | 444 kts | 298° |
| 2026-05-05 19:09 | 49.99096 | 10.94180 | 35804 ft | 445 kts | 298° |
| 2026-05-05 19:10 | 50.02353 | 10.85989 | 35809 ft | 445 kts | 298° |
| 2026-05-05 19:10 | 50.05608 | 10.77768 | 35814 ft | 446 kts | 298° |
| 2026-05-05 19:11 | 50.08849 | 10.69542 | 35812 ft | 446 kts | 298° |
| 2026-05-05 19:11 | 50.12102 | 10.61305 | 35814 ft | 447 kts | 298° |
| 2026-05-05 19:12 | 50.15369 | 10.53058 | 35813 ft | 447 kts | 298° |
| 2026-05-05 19:12 | 50.18633 | 10.44802 | 35814 ft | 448 kts | 298° |
| 2026-05-05 19:13 | 50.21897 | 10.36510 | 35814 ft | 448 kts | 298° |
| 2026-05-05 19:13 | 50.25144 | 10.28209 | 35818 ft | 448 kts | 298° |
| 2026-05-05 19:14 | 50.28388 | 10.19880 | 35817 ft | 449 kts | 298° |
| 2026-05-05 19:14 | 50.31636 | 10.11529 | 35816 ft | 449 kts | 298° |
| 2026-05-05 19:15 | 50.34854 | 10.03223 | 35814 ft | 449 kts | 298° |
| 2026-05-05 19:15 | 50.38098 | 9.94838 | 35816 ft | 450 kts | 298° |
| 2026-05-05 19:16 | 50.41334 | 9.86438 | 35816 ft | 450 kts | 298° |
| 2026-05-05 19:16 | 50.44561 | 9.78019 | 35821 ft | 450 kts | 298° |
| 2026-05-05 19:17 | 50.47789 | 9.69586 | 35818 ft | 451 kts | 298° |
| 2026-05-05 19:17 | 50.51019 | 9.61131 | 35820 ft | 451 kts | 297° |
| 2026-05-05 19:18 | 50.54540 | 9.52961 | 35812 ft | 454 kts | 306° |
| 2026-05-05 19:18 | 50.58511 | 9.45235 | 35811 ft | 454 kts | 306° |
| 2026-05-05 19:19 | 50.62485 | 9.37499 | 35698 ft | 456 kts | 306° |
| 2026-05-05 19:19 | 50.64479 | 9.33604 | 35161 ft | 457 kts | 306° |
| 2026-05-05 19:19 | 50.66464 | 9.29711 | 34647 ft | 455 kts | 306° |
| 2026-05-05 19:20 | 50.68440 | 9.25828 | 34133 ft | 453 kts | 306° |
| 2026-05-05 19:20 | 50.70407 | 9.21964 | 33605 ft | 451 kts | 306° |
| 2026-05-05 19:20 | 50.72373 | 9.18103 | 33027 ft | 449 kts | 307° |
| 2026-05-05 19:20 | 50.74321 | 9.14267 | 32463 ft | 447 kts | 307° |
| 2026-05-05 19:21 | 50.76260 | 9.10439 | 31909 ft | 445 kts | 307° |
| 2026-05-05 19:21 | 50.78184 | 9.06631 | 31366 ft | 443 kts | 307° |
| 2026-05-05 19:21 | 50.80095 | 9.02833 | 30832 ft | 440 kts | 307° |
| 2026-05-05 19:21 | 50.81995 | 8.99058 | 30316 ft | 438 kts | 307° |
| 2026-05-05 19:22 | 50.83892 | 8.95288 | 29790 ft | 435 kts | 307° |
| 2026-05-05 19:22 | 50.85766 | 8.91559 | 29192 ft | 433 kts | 307° |
| 2026-05-05 19:22 | 50.87639 | 8.87827 | 28610 ft | 431 kts | 307° |
| 2026-05-05 19:22 | 50.89494 | 8.84129 | 28039 ft | 428 kts | 307° |
| 2026-05-05 19:23 | 50.91343 | 8.80445 | 27477 ft | 425 kts | 307° |
| 2026-05-05 19:23 | 50.93149 | 8.76763 | 26928 ft | 422 kts | 303° |
| 2026-05-05 19:23 | 50.94784 | 8.72919 | 26440 ft | 417 kts | 302° |
| 2026-05-05 19:23 | 50.96343 | 8.69115 | 26232 ft | 406 kts | 301° |
| 2026-05-05 19:24 | 50.97843 | 8.65384 | 26029 ft | 397 kts | 301° |
| 2026-05-05 19:24 | 50.99313 | 8.61698 | 25845 ft | 393 kts | 300° |
| 2026-05-05 19:24 | 51.00769 | 8.58049 | 25793 ft | 390 kts | 301° |
| 2026-05-05 19:24 | 51.02203 | 8.54467 | 25431 ft | 388 kts | 300° |
| 2026-05-05 19:25 | 51.03648 | 8.50865 | 25000 ft | 386 kts | 301° |
| 2026-05-05 19:25 | 51.05086 | 8.47284 | 24593 ft | 383 kts | 301° |
| 2026-05-05 19:25 | 51.06514 | 8.43722 | 24193 ft | 381 kts | 300° |
| 2026-05-05 19:25 | 51.07929 | 8.40189 | 23783 ft | 378 kts | 301° |
| 2026-05-05 19:26 | 51.09255 | 8.36875 | 23422 ft | 376 kts | 300° |
| 2026-05-05 19:26 | 51.10652 | 8.33379 | 22975 ft | 373 kts | 300° |
| 2026-05-05 19:26 | 51.12035 | 8.29904 | 22554 ft | 370 kts | 300° |
| 2026-05-05 19:26 | 51.13411 | 8.26450 | 22141 ft | 368 kts | 300° |
| 2026-05-05 19:27 | 51.14773 | 8.23029 | 21738 ft | 365 kts | 300° |
| 2026-05-05 19:27 | 51.16129 | 8.19619 | 21319 ft | 362 kts | 300° |
| 2026-05-05 19:27 | 51.17456 | 8.16286 | 21170 ft | 352 kts | 300° |
| 2026-05-05 19:27 | 51.18767 | 8.12987 | 20686 ft | 353 kts | 300° |
| 2026-05-05 19:28 | 51.20079 | 8.09656 | 20200 ft | 354 kts | 300° |
| 2026-05-05 19:28 | 51.21385 | 8.06332 | 19784 ft | 353 kts | 300° |
| 2026-05-05 19:28 | 51.22683 | 8.03027 | 19402 ft | 350 kts | 300° |
| 2026-05-05 19:28 | 51.23974 | 7.99736 | 19046 ft | 348 kts | 300° |
| 2026-05-05 19:29 | 51.25260 | 7.96478 | 18687 ft | 346 kts | 301° |
| 2026-05-05 19:29 | 51.26527 | 7.93273 | 18315 ft | 345 kts | 301° |
| 2026-05-05 19:29 | 51.27802 | 7.90042 | 17947 ft | 343 kts | 301° |
| 2026-05-05 19:29 | 51.29054 | 7.86853 | 17818 ft | 333 kts | 301° |
| 2026-05-05 19:30 | 51.30266 | 7.83763 | 17834 ft | 326 kts | 300° |
| 2026-05-05 19:30 | 51.31465 | 7.80695 | 17834 ft | 324 kts | 300° |
| 2026-05-05 19:30 | 51.32659 | 7.77637 | 17456 ft | 325 kts | 300° |
| 2026-05-05 19:30 | 51.33862 | 7.74550 | 16958 ft | 328 kts | 300° |
| 2026-05-05 19:31 | 51.35077 | 7.71433 | 16460 ft | 331 kts | 301° |
| 2026-05-05 19:31 | 51.36217 | 7.68232 | 15973 ft | 332 kts | 290° |
| 2026-05-05 19:31 | 51.36626 | 7.64701 | 15651 ft | 325 kts | 266° |
| 2026-05-05 19:31 | 51.36188 | 7.61210 | 15306 ft | 319 kts | 250° |
| 2026-05-05 19:32 | 51.35467 | 7.57848 | 14825 ft | 322 kts | 249° |
| 2026-05-05 19:32 | 51.34709 | 7.54455 | 14344 ft | 325 kts | 249° |
| 2026-05-05 19:32 | 51.33940 | 7.51051 | 13956 ft | 324 kts | 249° |
| 2026-05-05 19:32 | 51.33170 | 7.47660 | 13590 ft | 323 kts | 249° |
| 2026-05-05 19:33 | 51.32399 | 7.44298 | 13194 ft | 321 kts | 249° |
| 2026-05-05 19:33 | 51.31628 | 7.40951 | 12792 ft | 319 kts | 249° |
| 2026-05-05 19:33 | 51.30866 | 7.37668 | 12409 ft | 318 kts | 249° |
| 2026-05-05 19:33 | 51.30086 | 7.34333 | 12030 ft | 316 kts | 249° |
| 2026-05-05 19:34 | 51.29322 | 7.31091 | 11652 ft | 314 kts | 249° |
| 2026-05-05 19:34 | 51.28547 | 7.27831 | 11282 ft | 313 kts | 249° |
| 2026-05-05 19:34 | 51.27778 | 7.24620 | 11081 ft | 305 kts | 248° |
| 2026-05-05 19:35 | 51.26307 | 7.18499 | 10842 ft | 285 kts | 249° |
| 2026-05-05 19:35 | 51.25606 | 7.15592 | 10849 ft | 278 kts | 248° |
| 2026-05-05 19:35 | 51.24905 | 7.12694 | 10443 ft | 285 kts | 249° |
| 2026-05-05 19:35 | 51.24178 | 7.09710 | 9994 ft | 290 kts | 248° |
| 2026-05-05 19:36 | 51.23442 | 7.06714 | 9642 ft | 288 kts | 248° |
| 2026-05-05 19:36 | 51.22709 | 7.03747 | 9266 ft | 287 kts | 248° |
| 2026-05-05 19:36 | 51.21979 | 7.00790 | 8911 ft | 285 kts | 248° |
| 2026-05-05 19:36 | 51.21255 | 6.97853 | 8542 ft | 283 kts | 248° |
| 2026-05-05 19:37 | 51.20533 | 6.94931 | 8174 ft | 282 kts | 248° |
| 2026-05-05 19:37 | 51.19826 | 6.92073 | 7814 ft | 280 kts | 248° |
| 2026-05-05 19:37 | 51.19112 | 6.89186 | 7452 ft | 278 kts | 248° |
| 2026-05-05 19:37 | 51.18405 | 6.86320 | 7095 ft | 277 kts | 248° |
| 2026-05-05 19:38 | 51.17708 | 6.83490 | 6861 ft | 270 kts | 248° |
| 2026-05-05 19:38 | 51.17039 | 6.80776 | 6856 ft | 255 kts | 248° |
| 2026-05-05 19:38 | 51.16399 | 6.78186 | 6865 ft | 250 kts | 248° |
| 2026-05-05 19:38 | 51.15763 | 6.75610 | 6862 ft | 250 kts | 248° |
| 2026-05-05 19:39 | 51.15124 | 6.73031 | 6858 ft | 250 kts | 248° |
| 2026-05-05 19:39 | 51.14486 | 6.70463 | 6864 ft | 250 kts | 248° |
| 2026-05-05 19:39 | 51.14063 | 6.68760 | 6861 ft | 250 kts | 248° |
| 2026-05-05 19:39 | 51.13424 | 6.66189 | 6701 ft | 249 kts | 248° |
| 2026-05-05 19:40 | 51.12786 | 6.63621 | 6335 ft | 249 kts | 248° |
| 2026-05-05 19:40 | 51.12148 | 6.61045 | 5962 ft | 250 kts | 248° |
| 2026-05-05 19:40 | 51.11574 | 6.58431 | 5557 ft | 250 kts | 261° |
| 2026-05-05 19:40 | 51.11713 | 6.55711 | 5184 ft | 249 kts | 292° |
| 2026-05-05 19:41 | 51.12672 | 6.53546 | 4980 ft | 240 kts | 318° |
| 2026-05-05 19:41 | 51.14004 | 6.52000 | 4698 ft | 235 kts | 339° |
| 2026-05-05 19:41 | 51.15588 | 6.51676 | 4379 ft | 231 kts | 10° |
| 2026-05-05 19:41 | 51.17056 | 6.52670 | 3813 ft | 232 kts | 41° |
| 2026-05-05 19:42 | 51.18084 | 6.54574 | 3470 ft | 223 kts | 53° |
| 2026-05-05 19:42 | 51.19010 | 6.56510 | 3158 ft | 215 kts | 53° |
| 2026-05-05 19:42 | 51.19906 | 6.58376 | 2870 ft | 208 kts | 53° |
| 2026-05-05 19:42 | 51.20769 | 6.60175 | 2590 ft | 201 kts | 53° |
| 2026-05-05 19:43 | 51.21601 | 6.61908 | 2328 ft | 193 kts | 53° |
| 2026-05-05 19:43 | 51.22396 | 6.63567 | 2094 ft | 184 kts | 52° |
| 2026-05-05 19:43 | 51.23149 | 6.65138 | 1824 ft | 171 kts | 51° |
| 2026-05-05 19:43 | 51.23838 | 6.66578 | 1614 ft | 154 kts | 51° |
| 2026-05-05 19:44 | 51.24453 | 6.67861 | 1408 ft | 140 kts | 51° |
| 2026-05-05 19:44 | 51.25032 | 6.69071 | 1206 ft | 136 kts | 51° |
| 2026-05-05 19:44 | 51.25601 | 6.70258 | 991 ft | 134 kts | 50° |
| 2026-05-05 19:44 | 51.26165 | 6.71443 | 817 ft | 134 kts | 50° |
| 2026-05-05 19:45 | 51.26735 | 6.72630 | 609 ft | 134 kts | 50° |
| 2026-05-05 19:45 | 51.27294 | 6.73806 | 430 ft | 134 kts | 49° |
| 2026-05-05 19:45 | 51.27860 | 6.74984 | 249 ft | 133 kts | 49° |
| 2026-05-05 19:45 | 51.28407 | 6.76137 | 132 ft | 121 kts | 48° |
| 2026-05-05 19:46 | 51.28789 | 6.76936 | 126 ft | 51 kts | 53° |
| 2026-05-05 19:46 | 51.28947 | 6.77269 | 126 ft | 26 kts | 53° |
| 2026-05-05 19:46 | 51.29019 | 6.77452 | 128 ft | 10 kts | 74° |
| 2026-05-05 19:46 | 51.29017 | 6.77536 | 127 ft | 6 kts | 107° |
| 2026-05-05 19:47 | 51.29004 | 6.77568 | 125 ft | 1 kts | 133° |
| 2026-05-05 19:47 | 51.29002 | 6.77570 | 125 ft | 0 kts | 136° |
| 2026-05-05 19:47 | 51.28990 | 6.77587 | 125 ft | 2 kts | 140° |
| 2026-05-05 19:47 | 51.28982 | 6.77597 | 123 ft | 5 kts | 141° |
| 2026-05-05 19:48 | 51.28967 | 6.77616 | 126 ft | 1 kts | 142° |
| 2026-05-05 19:48 | 51.28935 | 6.77649 | 127 ft | 7 kts | 159° |
| 2026-05-05 19:48 | 51.28903 | 6.77637 | 129 ft | 4 kts | 214° |
| 2026-05-05 19:48 | 51.28870 | 6.77577 | 127 ft | 11 kts | 231° |
| 2026-05-05 19:49 | 51.28813 | 6.77455 | 128 ft | 13 kts | 233° |
| 2026-05-05 19:49 | 51.28762 | 6.77349 | 127 ft | 13 kts | 232° |
| 2026-05-05 19:49 | 51.28700 | 6.77219 | 128 ft | 17 kts | 232° |
| 2026-05-05 19:49 | 51.28633 | 6.77077 | 124 ft | 14 kts | 233° |
| 2026-05-05 19:50 | 51.28568 | 6.76941 | 126 ft | 17 kts | 233° |
| 2026-05-05 19:50 | 51.28489 | 6.76775 | 124 ft | 19 kts | 233° |
| 2026-05-05 19:50 | 51.28417 | 6.76622 | 123 ft | 16 kts | 233° |
| 2026-05-05 19:50 | 51.28351 | 6.76489 | 123 ft | 17 kts | 232° |
| 2026-05-05 19:51 | 51.28272 | 6.76322 | 123 ft | 18 kts | 233° |
| 2026-05-05 19:51 | 51.28206 | 6.76183 | 126 ft | 13 kts | 233° |
| 2026-05-05 19:51 | 51.28158 | 6.76083 | 126 ft | 9 kts | 232° |
| 2026-05-05 19:51 | 51.28120 | 6.76000 | 127 ft | 11 kts | 233° |
| 2026-05-05 19:52 | 51.28066 | 6.75888 | 127 ft | 14 kts | 232° |
| 2026-05-05 19:52 | 51.27994 | 6.75823 | 129 ft | 11 kts | 186° |
| 2026-05-05 19:52 | 51.27890 | 6.75816 | 129 ft | 18 kts | 181° |
| 2026-05-05 19:52 | 51.27781 | 6.75813 | 129 ft | 14 kts | 181° |
| 2026-05-05 19:53 | 51.27699 | 6.75810 | 130 ft | 10 kts | 181° |
| 2026-05-05 19:53 | 51.27642 | 6.75814 | 126 ft | 7 kts | 169° |
| 2026-05-05 19:53 | 51.27599 | 6.75843 | 130 ft | 9 kts | 153° |
| 2026-05-05 19:53 | 51.27576 | 6.75873 | 128 ft | 2 kts | 116° |
| 2026-05-05 19:54 | 51.27578 | 6.75900 | 128 ft | 3 kts | 68° |
| 2026-05-05 19:54 | 51.27594 | 6.75944 | 129 ft | 2 kts | 63° |
| 2026-05-05 19:54 | 51.27599 | 6.75959 | 127 ft | 1 kts | 63° |
| 2026-05-05 19:54 | 51.27600 | 6.75963 | 127 ft | 0 kts | 63° |